createdAt,value
2018-05-25T00:00:18.020Z,97133.80
2018-05-25T00:02:46.253Z,97132.53
2018-05-25T00:05:14.439Z,97130.83
2018-05-25T00:07:42.662Z,97132.14
2018-05-25T00:10:11.244Z,97138.55
2018-05-25T00:12:40.965Z,97134.73
2018-05-25T00:15:09.357Z,97140.30
2018-05-25T00:17:37.532Z,97146.72
2018-05-25T00:20:05.687Z,97149.25
2018-05-25T00:22:33.870Z,97147.56
2018-05-25T00:25:02.021Z,97144.58
2018-05-25T00:27:30.195Z,97151.83
2018-05-25T00:29:58.346Z,97148.84
2018-05-25T00:32:26.533Z,97144.59
2018-05-25T00:34:54.699Z,97142.90
2018-05-25T00:37:22.857Z,97142.48
2018-05-25T00:39:51.044Z,97139.09
2018-05-25T00:42:19.833Z,97140.38
2018-05-25T00:44:48.015Z,97139.09
2018-05-25T00:47:17.306Z,97137.86
2018-05-25T00:49:45.481Z,97148.52
2018-05-25T00:52:13.653Z,97144.25
2018-05-25T00:54:41.815Z,97148.09
2018-05-25T00:57:09.997Z,97149.80
2018-05-25T00:59:38.157Z,97154.91
2018-05-25T01:02:06.336Z,97149.38
2018-05-25T01:04:34.497Z,97150.22
2018-05-25T01:07:02.680Z,97144.69
2018-05-25T01:09:30.839Z,97148.14
2018-05-25T01:11:59.020Z,97144.75
2018-05-25T01:14:27.197Z,97146.95
2018-05-25T01:16:55.398Z,97143.57
2018-05-25T01:19:24.488Z,97154.67
2018-05-25T01:21:52.663Z,97142.31
2018-05-25T01:26:55.370Z,97150.03
2018-05-25T01:29:24.546Z,97147.91
2018-05-25T01:31:52.716Z,97130.91
2018-05-25T01:34:26.900Z,97136.89
2018-05-25T01:36:55.046Z,97132.66
2018-05-25T01:39:30.117Z,97133.09
2018-05-25T01:41:58.252Z,97136.55
2018-05-25T01:44:26.438Z,97137.39
2018-05-25T01:47:01.626Z,97135.28
2018-05-25T01:49:29.806Z,97131.44
2018-05-25T01:51:57.958Z,97125.48
2018-05-25T01:54:26.122Z,97128.93
2018-05-25T01:56:54.863Z,97132.33
2018-05-25T01:59:23.026Z,97130.22
2018-05-25T02:01:51.192Z,97134.05
2018-05-25T02:04:19.386Z,97134.50
2018-05-25T02:06:47.557Z,97135.34
2018-05-25T02:09:19.582Z,97131.96
2018-05-25T02:11:47.760Z,97131.53
2018-05-25T02:14:15.904Z,97135.80
2018-05-25T02:16:44.188Z,97135.39
2018-05-25T02:19:12.380Z,97134.11
2018-05-25T02:21:40.560Z,97132.84
2018-05-25T02:24:12.290Z,97136.67
2018-05-25T02:26:40.756Z,97142.25
2018-05-25T02:29:08.940Z,97136.27
2018-05-25T02:31:37.106Z,97139.27
2018-05-25T02:34:05.282Z,97135.86
2018-05-25T02:36:33.428Z,97131.20
2018-05-25T02:39:01.618Z,97133.77
2018-05-25T02:41:29.788Z,97139.33
2018-05-25T02:43:57.976Z,97133.38
2018-05-25T02:46:26.112Z,97141.48
2018-05-25T02:48:54.294Z,97135.09
2018-05-25T02:51:22.462Z,97136.78
2018-05-25T02:53:50.627Z,97140.63
2018-05-25T02:56:18.796Z,97136.37
2018-05-25T02:58:46.976Z,97139.81
2018-05-25T03:01:15.141Z,97138.11
2018-05-25T03:03:43.340Z,97136.84
2018-05-25T03:06:11.506Z,97141.53
2018-05-25T03:08:39.684Z,97141.09
2018-05-25T03:11:09.880Z,97144.53
2018-05-25T03:13:38.044Z,97145.39
2018-05-25T03:16:06.232Z,97147.13
2018-05-25T03:18:44.196Z,97142.91
2018-05-25T03:21:12.362Z,97144.17
2018-05-25T03:23:48.728Z,97141.64
2018-05-25T03:26:16.914Z,97136.94
2018-05-25T03:28:45.066Z,97142.91
2018-05-25T03:31:19.424Z,97141.23
2018-05-25T03:33:47.592Z,97139.11
2018-05-25T03:36:18.954Z,97136.58
2018-05-25T03:38:47.156Z,97136.15
2018-05-25T03:41:15.336Z,97138.28
2018-05-25T03:43:43.528Z,97142.56
2018-05-25T03:46:11.692Z,97139.16
2018-05-25T03:48:39.866Z,97140.45
2018-05-25T03:51:08.054Z,97137.89
2018-05-25T03:53:42.445Z,97140.03
2018-05-25T03:56:11.359Z,97146.40
2018-05-25T03:58:51.399Z,97143.86
2018-05-25T04:01:33.126Z,97148.53
2018-05-25T04:04:04.496Z,97145.13
2018-05-25T04:06:32.710Z,97155.34
2018-05-25T04:09:00.859Z,97153.21
2018-05-25T04:11:29.048Z,97151.93
2018-05-25T04:13:57.205Z,97157.03
2018-05-25T04:16:25.381Z,97157.46
2018-05-25T04:18:53.543Z,97150.22
2018-05-25T04:21:21.725Z,97154.47
2018-05-25T04:23:54.142Z,97156.14
2018-05-25T04:26:22.309Z,97160.42
2018-05-25T04:28:50.673Z,97160.45
2018-05-25T04:31:18.828Z,97158.28
2018-05-25T04:33:46.997Z,97163.38
2018-05-25T04:36:15.167Z,97156.96
2018-05-25T04:38:43.320Z,97163.30
2018-05-25T04:41:19.739Z,97156.47
2018-05-25T04:43:47.898Z,97154.33
2018-05-25T04:46:22.349Z,97156.45
2018-05-25T04:48:50.485Z,97158.58
2018-05-25T04:51:18.659Z,97164.97
2018-05-25T04:53:46.840Z,97164.55
2018-05-25T04:56:16.786Z,97158.98
2018-05-25T04:58:44.958Z,97159.81
2018-05-25T05:01:13.157Z,97158.53
2018-05-25T05:03:41.341Z,97158.11
2018-05-25T05:06:09.503Z,97158.55
2018-05-25T05:08:37.685Z,97164.48
2018-05-25T05:11:05.861Z,97166.17
2018-05-25T05:13:34.055Z,97162.31
2018-05-25T05:16:02.250Z,97162.72
2018-05-25T05:18:30.425Z,97160.98
2018-05-25T05:20:58.600Z,97158.80
2018-05-25T05:23:33.199Z,97155.83
2018-05-25T05:26:01.356Z,97155.39
2018-05-25T05:28:29.519Z,97160.47
2018-05-25T05:30:57.715Z,97157.06
2018-05-25T05:33:25.896Z,97157.87
2018-05-25T05:35:54.084Z,97157.38
2018-05-25T05:38:22.249Z,97158.64
2018-05-25T05:40:50.469Z,97149.66
2018-05-25T05:43:18.592Z,97161.59
2018-05-25T05:45:46.781Z,97155.59
2018-05-25T05:48:14.943Z,97158.09
2018-05-25T05:50:51.621Z,97154.72
2018-05-25T05:53:19.794Z,97156.40
2018-05-25T05:55:47.973Z,97154.23
2018-05-25T05:58:16.125Z,97157.60
2018-05-25T06:00:45.754Z,97156.27
2018-05-25T06:03:26.927Z,97157.10
2018-05-25T06:05:55.095Z,97160.48
2018-05-25T06:08:24.151Z,97159.61
2018-05-25T06:10:52.320Z,97163.47
2018-05-25T06:13:28.799Z,97163.86
2018-05-25T06:15:56.974Z,97172.80
2018-05-25T06:18:25.175Z,97172.78
2018-05-25T06:20:53.361Z,97172.80
2018-05-25T06:23:21.552Z,97173.30
2018-05-25T06:25:49.785Z,97174.02
2018-05-25T06:28:17.966Z,97169.16
2018-05-25T06:30:46.153Z,97178.08
2018-05-25T06:33:20.800Z,97170.80
2018-05-25T06:35:48.966Z,97178.41
2018-05-25T06:38:17.165Z,97178.23
2018-05-25T06:40:46.157Z,97183.70
2018-05-25T06:43:14.316Z,97178.19
2018-05-25T06:45:42.483Z,97182.27
2018-05-25T06:48:10.653Z,97183.02
2018-05-25T06:50:38.921Z,97177.41
2018-05-25T06:55:45.960Z,97183.56
2018-05-25T06:58:14.873Z,97188.28
2018-05-25T07:00:44.608Z,97187.95
2018-05-25T07:03:15.165Z,97181.66
2018-05-25T07:05:43.344Z,97178.55
2018-05-25T07:08:11.533Z,97177.98
2018-05-25T07:10:39.716Z,97183.01
2018-05-25T07:13:07.884Z,97184.59
2018-05-25T07:15:44.195Z,97178.10
2018-05-25T07:18:28.802Z,97177.20
2018-05-25T07:20:57.358Z,97179.31
2018-05-25T07:23:25.527Z,97178.41
2018-05-25T07:25:53.676Z,97189.39
2018-05-25T07:28:21.861Z,97185.04
2018-05-25T07:30:51.679Z,97181.02
2018-05-25T07:33:25.770Z,97185.76
2018-05-25T07:35:53.904Z,97179.60
2018-05-25T07:38:22.092Z,97175.66
2018-05-25T07:40:54.097Z,97178.58
2018-05-25T07:43:29.974Z,97170.75
2018-05-25T07:45:58.136Z,97175.70
2018-05-25T07:48:26.333Z,97170.97
2018-05-25T07:50:54.484Z,97173.02
2018-05-25T07:53:23.988Z,97175.59
2018-05-25T07:55:53.474Z,97175.98
2018-05-25T07:58:21.666Z,97183.97
2018-05-25T08:00:49.866Z,97172.34
2018-05-25T08:03:18.025Z,97169.18
2018-05-25T08:05:53.107Z,97170.37
2018-05-25T08:08:21.265Z,97168.75
2018-05-25T08:10:49.437Z,97169.30
2018-05-25T08:13:17.592Z,97170.39
2018-05-25T08:15:46.423Z,97162.96
2018-05-25T08:18:24.213Z,97163.67
2018-05-25T08:20:52.396Z,97162.88
2018-05-25T08:23:20.597Z,97158.55
2018-05-25T08:25:48.790Z,97157.62
2018-05-25T08:28:16.966Z,97154.81
2018-05-25T08:30:45.128Z,97152.91
2018-05-25T08:33:20.060Z,97152.63
2018-05-25T08:35:48.236Z,97155.56
2018-05-25T08:38:16.678Z,97148.66
2018-05-25T08:40:44.847Z,97149.63
2018-05-25T08:43:13.072Z,97140.25
2018-05-25T08:45:42.765Z,97140.39
2018-05-25T08:48:10.965Z,97140.41
2018-05-25T08:50:39.144Z,97138.48
2018-05-25T08:53:07.317Z,97138.36
2018-05-25T08:55:35.480Z,97136.11
2018-05-25T08:58:03.681Z,97138.16
2018-05-25T09:00:31.847Z,97133.48
2018-05-25T09:03:00.010Z,97132.27
2018-05-25T09:05:28.198Z,97131.36
2018-05-25T09:07:56.363Z,97131.79
2018-05-25T09:10:24.813Z,97126.09
2018-05-25T09:12:53.030Z,97137.48
2018-05-25T09:15:21.199Z,97137.28
2018-05-25T09:17:49.387Z,97134.64
2018-05-25T09:20:17.542Z,97144.04
2018-05-25T09:22:45.734Z,97136.47
2018-05-25T09:25:20.310Z,97132.55
2018-05-25T09:27:48.472Z,97137.84
2018-05-25T09:30:17.171Z,97136.88
2018-05-25T09:32:45.364Z,97135.05
2018-05-25T09:35:19.946Z,97131.70
2018-05-25T09:37:48.109Z,97138.69
2018-05-25T09:40:17.201Z,97141.02
2018-05-25T09:42:45.366Z,97137.79
2018-05-25T09:45:13.534Z,97137.56
2018-05-25T09:47:41.699Z,97136.73
2018-05-25T09:50:10.162Z,97138.78
2018-05-25T09:52:38.797Z,97137.44
2018-05-25T09:55:13.922Z,97126.73
2018-05-25T09:57:56.974Z,97130.71
2018-05-25T10:00:26.367Z,97123.34
2018-05-25T10:02:54.529Z,97111.73
2018-05-25T10:05:22.706Z,97115.59
2018-05-25T10:07:50.880Z,97114.73
2018-05-25T10:10:19.045Z,97109.73
2018-05-25T10:12:47.560Z,97108.64
2018-05-25T10:15:15.748Z,97106.13
2018-05-25T10:17:44.029Z,97103.58
2018-05-25T10:20:12.191Z,97101.33
2018-05-25T10:22:47.222Z,97098.42
2018-05-25T10:25:15.667Z,97100.16
2018-05-25T10:27:45.393Z,97098.84
2018-05-25T10:30:13.626Z,97100.46
2018-05-25T10:32:41.813Z,97103.20
2018-05-25T10:35:10.029Z,97091.13
2018-05-25T10:37:38.174Z,97093.30
2018-05-25T10:40:11.254Z,97094.34
2018-05-25T10:42:42.450Z,97089.24
2018-05-25T10:45:11.392Z,97087.26
2018-05-25T10:47:40.604Z,97081.98
2018-05-25T10:50:08.786Z,97092.30
2018-05-25T10:52:44.212Z,97081.92
2018-05-25T10:55:12.390Z,97088.02
2018-05-25T10:57:40.539Z,97078.08
2018-05-25T11:00:08.718Z,97081.12
2018-05-25T11:02:36.872Z,97083.28
2018-05-25T11:05:05.817Z,97080.98
2018-05-25T11:07:33.986Z,97073.13
2018-05-25T11:10:02.191Z,97073.05
2018-05-25T11:12:30.344Z,97072.27
2018-05-25T11:14:58.782Z,97077.23
2018-05-25T11:17:26.967Z,97075.05
2018-05-25T11:19:55.149Z,97077.36
2018-05-25T11:22:23.339Z,97078.70
2018-05-25T11:24:51.481Z,97079.96
2018-05-25T11:27:19.661Z,97071.25
2018-05-25T11:29:47.835Z,97075.30
2018-05-25T11:32:19.624Z,97066.73
2018-05-25T11:34:47.778Z,97062.60
2018-05-25T11:37:15.947Z,97063.05
2018-05-25T11:39:44.117Z,97062.27
2018-05-25T11:42:12.281Z,97054.95
2018-05-25T11:44:40.447Z,97056.09
2018-05-25T11:47:11.915Z,97052.80
2018-05-25T11:49:41.357Z,97052.34
2018-05-25T11:52:10.701Z,97052.20
2018-05-25T11:54:38.868Z,97050.03
2018-05-25T11:57:07.159Z,97049.06
2018-05-25T11:59:35.331Z,97048.55
2018-05-25T12:02:03.479Z,97046.59
2018-05-25T12:04:31.707Z,97047.69
2018-05-25T12:06:59.897Z,97046.53
2018-05-25T12:09:34.341Z,97042.34
2018-05-25T12:12:02.483Z,97043.95
2018-05-25T12:14:30.637Z,97044.69
2018-05-25T12:16:58.821Z,97039.33
2018-05-25T12:19:27.020Z,97044.46
2018-05-25T12:21:55.218Z,97044.86
2018-05-25T12:24:26.425Z,97042.26
2018-05-25T12:26:54.585Z,97041.86
2018-05-25T12:29:22.731Z,97040.44
2018-05-25T12:31:50.901Z,97043.84
2018-05-25T12:34:20.442Z,97040.09
2018-05-25T12:36:51.608Z,97040.89
2018-05-25T12:39:22.849Z,97042.01
2018-05-25T12:41:51.086Z,97039.88
2018-05-25T12:44:19.298Z,97033.73
2018-05-25T12:46:47.565Z,97034.38
2018-05-25T12:49:15.744Z,97033.09
2018-05-25T12:51:43.935Z,97033.66
2018-05-25T12:54:12.329Z,97028.67
2018-05-25T12:56:40.646Z,97022.26
2018-05-25T12:59:08.796Z,97024.91
2018-05-25T13:01:36.989Z,97016.92
2018-05-25T13:04:05.165Z,97027.70
2018-05-25T13:06:33.312Z,97031.38
2018-05-25T13:09:01.506Z,97036.20
2018-05-25T13:11:29.659Z,97036.13
2018-05-25T13:13:57.821Z,97042.66
2018-05-25T13:16:26.042Z,97034.87
2018-05-25T13:18:54.183Z,97043.73
2018-05-25T13:21:22.375Z,97052.92
2018-05-25T13:23:50.543Z,97062.81
2018-05-25T13:26:18.955Z,97064.66
2018-05-25T13:28:47.219Z,97063.75
2018-05-25T13:31:15.421Z,97060.27
2018-05-25T13:33:43.555Z,97068.55
2018-05-25T13:36:11.720Z,97061.31
2018-05-25T13:38:39.876Z,97084.29
2018-05-25T13:41:08.861Z,97080.80
2018-05-25T13:43:37.033Z,97089.70
2018-05-25T13:46:05.201Z,97090.48
2018-05-25T13:48:33.404Z,97096.25
2018-05-25T13:51:01.557Z,97103.36
2018-05-25T13:53:29.790Z,97099.19
2018-05-25T13:55:57.959Z,97104.27
2018-05-25T13:58:26.132Z,97106.63
2018-05-25T14:00:54.322Z,97105.38
2018-05-25T14:03:22.645Z,97105.57
2018-05-25T14:05:50.808Z,97107.05
2018-05-25T14:08:18.975Z,97106.12
2018-05-25T14:10:47.136Z,97115.48
2018-05-25T14:13:15.317Z,97111.08
2018-05-25T14:15:43.494Z,97102.05
2018-05-25T14:18:11.694Z,97110.77
2018-05-25T14:20:39.884Z,97115.97
2018-05-25T14:23:08.052Z,97120.83
2018-05-25T14:25:36.210Z,97118.99
2018-05-25T14:28:04.614Z,97117.33
2018-05-25T14:30:32.895Z,97108.23
2018-05-25T14:33:01.072Z,97116.20
2018-05-25T14:35:29.270Z,97120.77
2018-05-25T14:37:57.466Z,97123.59
2018-05-25T14:40:25.639Z,97125.14
2018-05-25T14:42:53.870Z,97119.72
2018-05-25T14:45:22.035Z,97118.95
2018-05-25T14:47:50.214Z,97119.77
2018-05-25T14:50:18.388Z,97130.39
2018-05-25T14:52:47.332Z,97130.35
2018-05-25T14:55:15.536Z,97128.97
2018-05-25T14:57:43.736Z,97131.98
2018-05-25T15:00:11.911Z,97131.98
2018-05-25T15:02:40.356Z,97121.12
2018-05-25T15:05:08.525Z,97120.57
2018-05-25T15:07:36.697Z,97113.75
2018-05-25T15:10:04.865Z,97119.22
2018-05-25T15:12:33.026Z,97118.03
2018-05-25T15:15:01.219Z,97120.23
2018-05-25T15:17:29.382Z,97121.43
2018-05-25T15:19:57.556Z,97128.56
2018-05-25T15:22:29.289Z,97117.22
2018-05-25T15:24:57.494Z,97120.77
2018-05-25T15:27:25.651Z,97124.92
2018-05-25T15:29:53.814Z,97131.55
2018-05-25T15:32:22.004Z,97127.01
2018-05-25T15:34:50.159Z,97125.92
2018-05-25T15:37:18.348Z,97129.22
2018-05-25T15:39:46.522Z,97129.27
2018-05-25T15:42:14.676Z,97122.70
2018-05-25T15:44:42.862Z,97120.17
2018-05-25T15:47:17.604Z,97118.83
2018-05-25T15:49:45.763Z,97116.78
2018-05-25T15:52:13.906Z,97117.20
2018-05-25T15:54:45.262Z,97109.05
2018-05-25T15:57:13.420Z,97113.46
2018-05-25T15:59:41.621Z,97109.87
2018-05-25T16:02:12.082Z,97110.39
2018-05-25T16:04:40.256Z,97106.73
2018-05-25T16:07:08.423Z,97102.38
2018-05-25T16:09:36.642Z,97100.88
2018-05-25T16:12:04.791Z,97106.78
2018-05-25T16:14:32.990Z,97102.59
2018-05-25T16:17:02.116Z,97104.00
2018-05-25T16:19:30.297Z,97097.66
2018-05-25T16:21:58.477Z,97103.83
2018-05-25T16:24:26.623Z,97108.77
2018-05-25T16:26:54.822Z,97109.88
2018-05-25T16:29:22.980Z,97107.66
2018-05-25T16:31:51.188Z,97108.58
2018-05-25T16:34:19.352Z,97110.43
2018-05-25T16:36:47.536Z,97107.81
2018-05-25T16:39:15.722Z,97104.92
2018-05-25T16:41:43.983Z,97106.10
2018-05-25T16:44:12.156Z,97110.53
2018-05-25T16:46:40.340Z,97108.47
2018-05-25T16:49:08.499Z,97106.76
2018-05-25T16:51:36.675Z,97109.44
2018-05-25T16:54:04.857Z,97102.89
2018-05-25T16:56:33.013Z,97109.61
2018-05-25T16:59:01.186Z,97111.32
2018-05-25T17:01:29.321Z,97105.89
2018-05-25T17:03:57.527Z,97112.25
2018-05-25T17:06:26.525Z,97108.16
2018-05-25T17:08:54.746Z,97109.61
2018-05-25T17:11:22.919Z,97112.30
2018-05-25T17:13:51.096Z,97113.48
2018-05-25T17:16:19.267Z,97123.16
2018-05-25T17:18:47.443Z,97127.36
2018-05-25T17:21:16.357Z,97129.14
2018-05-25T17:23:44.495Z,97134.62
2018-05-25T17:26:12.689Z,97141.34
2018-05-25T17:28:40.835Z,97130.42
2018-05-25T17:31:09.017Z,97136.61
2018-05-25T17:33:37.174Z,97146.56
2018-05-25T17:36:05.417Z,97145.47
2018-05-25T17:38:35.344Z,97151.23
2018-05-25T17:41:03.520Z,97150.03
2018-05-25T17:43:31.700Z,97155.69
2018-05-25T17:45:59.862Z,97152.83
2018-05-25T17:48:28.068Z,97153.31
2018-05-25T17:50:57.044Z,97146.59
2018-05-25T17:53:25.225Z,97144.21
2018-05-25T17:55:53.395Z,97151.62
2018-05-25T17:58:21.546Z,97155.26
2018-05-25T18:00:49.702Z,97159.64
2018-05-25T18:03:17.888Z,97161.55
2018-05-25T18:05:46.138Z,97165.19
2018-05-25T18:08:14.281Z,97163.47
2018-05-25T18:10:42.511Z,97167.18
2018-05-25T18:13:10.641Z,97162.69
2018-05-25T18:15:45.797Z,97161.53
2018-05-25T18:18:13.978Z,97169.84
2018-05-25T18:20:42.151Z,97166.58
2018-05-25T18:23:10.297Z,97166.80
2018-05-25T18:25:38.535Z,97166.95
2018-05-25T18:28:06.683Z,97170.98
2018-05-25T18:30:34.895Z,97169.04
2018-05-25T18:33:09.065Z,97172.21
2018-05-25T18:35:37.532Z,97168.69
2018-05-25T18:38:05.714Z,97167.33
2018-05-25T18:40:33.883Z,97168.45
2018-05-25T18:43:02.063Z,97168.54
2018-05-25T18:45:30.214Z,97166.86
2018-05-25T18:47:58.417Z,97163.00
2018-05-25T18:50:29.736Z,97174.27
2018-05-25T18:52:57.909Z,97171.34
2018-05-25T18:55:28.343Z,97176.13
2018-05-25T18:57:56.676Z,97183.14
2018-05-25T19:00:30.891Z,97177.20
2018-05-25T19:02:59.079Z,97188.86
2018-05-25T19:05:28.095Z,97195.82
2018-05-25T19:07:56.265Z,97198.06
2018-05-25T19:10:24.434Z,97199.03
2018-05-25T19:12:52.596Z,97205.98
2018-05-25T19:15:20.927Z,97212.12
2018-05-25T19:17:49.163Z,97213.53
2018-05-25T19:20:17.363Z,97216.20
2018-05-25T19:22:45.528Z,97221.47
2018-05-25T19:25:17.056Z,97225.81
2018-05-25T19:27:45.223Z,97225.02
2018-05-25T19:30:13.565Z,97226.36
2018-05-25T19:32:44.530Z,97220.88
2018-05-25T19:35:19.355Z,97225.69
2018-05-25T19:37:47.516Z,97221.52
2018-05-25T19:40:23.464Z,97223.75
2018-05-25T19:42:51.620Z,97225.48
2018-05-25T19:45:19.851Z,97224.59
2018-05-25T19:47:47.970Z,97231.39
2018-05-25T19:50:16.119Z,97233.50
2018-05-25T19:52:44.344Z,97233.96
2018-05-25T19:55:19.033Z,97240.35
2018-05-25T19:57:47.194Z,97246.80
2018-05-25T20:00:15.370Z,97247.72
2018-05-25T20:02:46.602Z,97256.67
2018-05-25T20:05:21.414Z,97243.86
2018-05-25T20:07:49.640Z,97251.16
2018-05-25T20:10:17.819Z,97254.64
2018-05-25T20:12:45.977Z,97254.27
2018-05-25T20:15:14.157Z,97253.84
2018-05-25T20:17:42.336Z,97258.17
2018-05-25T20:20:10.558Z,97259.11
2018-05-25T20:22:38.830Z,97266.44
2018-05-25T20:25:07.677Z,97255.34
2018-05-25T20:27:35.843Z,97259.67
2018-05-25T20:30:04.030Z,97255.05
2018-05-25T20:32:32.193Z,97249.15
2018-05-25T20:35:00.424Z,97256.06
2018-05-25T20:37:28.559Z,97248.89
2018-05-25T20:39:56.733Z,97244.66
2018-05-25T20:42:24.893Z,97243.88
2018-05-25T20:44:53.052Z,97246.11
2018-05-25T20:47:21.256Z,97250.47
2018-05-25T20:49:49.450Z,97249.22
2018-05-25T20:52:17.634Z,97250.95
2018-05-25T20:54:45.794Z,97256.97
2018-05-25T20:57:14.000Z,97257.83
2018-05-25T20:59:42.171Z,97255.30
2018-05-25T21:02:11.244Z,97252.77
2018-05-25T21:04:39.412Z,97254.08
2018-05-25T21:07:07.566Z,97259.70
2018-05-25T21:09:35.757Z,97272.11
2018-05-25T21:12:04.042Z,97269.92
2018-05-25T21:14:32.217Z,97269.50
2018-05-25T21:17:00.365Z,97271.23
2018-05-25T21:19:29.385Z,97275.52
2018-05-25T21:21:57.554Z,97260.62
2018-05-25T21:24:25.724Z,97264.11
2018-05-25T21:26:53.894Z,97256.94
2018-05-25T21:29:22.118Z,97264.23
2018-05-25T21:31:51.904Z,97259.58
2018-05-25T21:34:20.108Z,97266.83
2018-05-25T21:36:48.274Z,97260.86
2018-05-25T21:39:17.061Z,97269.45
2018-05-25T21:41:45.236Z,97262.67
2018-05-25T21:44:13.397Z,97261.44
2018-05-25T21:46:41.571Z,97259.31
2018-05-25T21:49:09.733Z,97260.66
2018-05-25T21:51:37.925Z,97267.99
2018-05-25T21:54:06.090Z,97265.92
2018-05-25T21:56:34.484Z,97273.22
2018-05-25T21:59:02.643Z,97271.13
2018-05-25T22:01:30.804Z,97272.84
2018-05-25T22:03:58.973Z,97271.63
2018-05-25T22:06:27.144Z,97268.63
2018-05-25T22:08:55.298Z,97265.71
2018-05-25T22:11:26.018Z,97262.31
2018-05-25T22:13:54.211Z,97261.03
2018-05-25T22:16:22.391Z,97267.45
2018-05-25T22:18:50.587Z,97267.47
2018-05-25T22:21:18.736Z,97267.05
2018-05-25T22:23:46.905Z,97266.24
2018-05-25T22:26:15.075Z,97270.55
2018-05-25T22:28:43.259Z,97276.54
2018-05-25T22:31:11.443Z,97265.48
2018-05-25T22:33:39.605Z,97278.28
2018-05-25T22:36:07.804Z,97276.13
2018-05-25T22:38:35.979Z,97275.72
2018-05-25T22:41:04.914Z,97277.44
2018-05-25T22:43:45.589Z,97274.90
2018-05-25T22:46:25.680Z,97271.92
2018-05-25T22:49:05.681Z,97271.50
2018-05-25T22:51:45.843Z,97265.13
2018-05-25T22:54:34.326Z,97268.12
2018-05-25T22:57:02.491Z,97268.15
2018-05-25T22:59:30.687Z,97261.75
2018-05-25T23:01:58.867Z,97262.64
2018-05-25T23:04:27.055Z,97261.80
2018-05-25T23:06:55.288Z,97256.66
2018-05-25T23:09:23.446Z,97265.62
2018-05-25T23:11:51.612Z,97259.64
2018-05-25T23:14:19.794Z,97262.61
2018-05-25T23:16:47.974Z,97263.45
2018-05-25T23:19:16.185Z,97254.97
2018-05-25T23:21:44.362Z,97254.95
2018-05-25T23:24:19.527Z,97249.84
2018-05-25T23:26:50.779Z,97260.06
2018-05-25T23:29:19.403Z,97253.27
2018-05-25T23:31:47.567Z,97258.83
2018-05-25T23:34:15.756Z,97260.97
2018-05-25T23:36:43.947Z,97263.52
2018-05-25T23:39:19.239Z,97259.70
2018-05-25T23:41:50.732Z,97264.84
2018-05-25T23:44:18.954Z,97260.17
2018-05-25T23:46:47.125Z,97263.59
2018-05-25T23:49:15.312Z,97264.03
2018-05-25T23:51:43.481Z,97259.32
2018-05-25T23:54:12.382Z,97268.28
2018-05-25T23:56:40.571Z,97267.02
2018-05-25T23:59:09.752Z,97268.31
